sensor_id;sensor_type;location;lat;lon;timestamp;P1;durP1;ratioP1;P2;durP2;ratioP2
27365;SDS011;14837;57.148;-2.144;2022-11-15T00:00:30;31.05;;;19.55;;
27365;SDS011;14837;57.148;-2.144;2022-11-15T00:02:57;39.35;;;21.00;;
27365;SDS011;14837;57.148;-2.144;2022-11-15T00:05:24;28.13;;;18.60;;
27365;SDS011;14837;57.148;-2.144;2022-11-15T00:07:51;30.65;;;20.15;;
27365;SDS011;14837;57.148;-2.144;2022-11-15T00:10:21;29.33;;;19.52;;
27365;SDS011;14837;57.148;-2.144;2022-11-15T00:12:48;26.70;;;19.02;;
27365;SDS011;14837;57.148;-2.144;2022-11-15T00:15:14;29.75;;;19.35;;
27365;SDS011;14837;57.148;-2.144;2022-11-15T00:17:41;41.13;;;24.30;;
27365;SDS011;14837;57.148;-2.144;2022-11-15T00:20:07;30.60;;;20.27;;
27365;SDS011;14837;57.148;-2.144;2022-11-15T00:22:34;33.60;;;21.55;;
27365;SDS011;14837;57.148;-2.144;2022-11-15T00:25:01;37.60;;;24.95;;
27365;SDS011;14837;57.148;-2.144;2022-11-15T00:27:27;29.80;;;20.40;;
27365;SDS011;14837;57.148;-2.144;2022-11-15T00:29:54;31.63;;;20.92;;
27365;SDS011;14837;57.148;-2.144;2022-11-15T00:32:20;27.77;;;20.65;;
27365;SDS011;14837;57.148;-2.144;2022-11-15T00:34:47;33.75;;;20.90;;
27365;SDS011;14837;57.148;-2.144;2022-11-15T00:37:13;35.35;;;21.50;;
27365;SDS011;14837;57.148;-2.144;2022-11-15T00:39:40;33.03;;;22.02;;
27365;SDS011;14837;57.148;-2.144;2022-11-15T00:42:06;32.97;;;20.80;;
27365;SDS011;14837;57.148;-2.144;2022-11-15T00:44:32;36.20;;;20.90;;
27365;SDS011;14837;57.148;-2.144;2022-11-15T00:46:59;31.92;;;22.73;;
27365;SDS011;14837;57.148;-2.144;2022-11-15T00:49:25;34.35;;;22.17;;
27365;SDS011;14837;57.148;-2.144;2022-11-15T00:51:52;31.42;;;21.55;;
27365;SDS011;14837;57.148;-2.144;2022-11-15T00:54:18;35.85;;;22.70;;
27365;SDS011;14837;57.148;-2.144;2022-11-15T00:56:45;41.22;;;22.08;;
27365;SDS011;14837;57.148;-2.144;2022-11-15T00:59:11;44.10;;;23.45;;
27365;SDS011;14837;57.148;-2.144;2022-11-15T01:01:38;28.10;;;21.02;;
27365;SDS011;14837;57.148;-2.144;2022-11-15T01:04:04;29.17;;;21.13;;
27365;SDS011;14837;57.148;-2.144;2022-11-15T01:06:31;39.80;;;23.75;;
27365;SDS011;14837;57.148;-2.144;2022-11-15T01:08:57;44.42;;;22.60;;
27365;SDS011;14837;57.148;-2.144;2022-11-15T01:11:24;30.92;;;21.42;;
27365;SDS011;14837;57.148;-2.144;2022-11-15T01:13:50;33.33;;;21.00;;
27365;SDS011;14837;57.148;-2.144;2022-11-15T01:16:17;35.20;;;20.75;;
27365;SDS011;14837;57.148;-2.144;2022-11-15T01:18:44;28.13;;;21.33;;
27365;SDS011;14837;57.148;-2.144;2022-11-15T01:21:15;29.45;;;18.33;;
27365;SDS011;14837;57.148;-2.144;2022-11-15T01:23:42;26.40;;;18.25;;
27365;SDS011;14837;57.148;-2.144;2022-11-15T01:26:10;27.73;;;19.30;;
27365;SDS011;14837;57.148;-2.144;2022-11-15T01:28:37;28.50;;;19.20;;
27365;SDS011;14837;57.148;-2.144;2022-11-15T01:31:05;27.77;;;18.27;;
27365;SDS011;14837;57.148;-2.144;2022-11-15T01:33:33;28.10;;;18.58;;
27365;SDS011;14837;57.148;-2.144;2022-11-15T01:36:03;28.17;;;19.10;;
27365;SDS011;14837;57.148;-2.144;2022-11-15T01:38:29;35.40;;;22.40;;
27365;SDS011;14837;57.148;-2.144;2022-11-15T01:40:56;28.45;;;19.55;;
27365;SDS011;14837;57.148;-2.144;2022-11-15T01:43:30;30.45;;;20.33;;
27365;SDS011;14837;57.148;-2.144;2022-11-15T01:46:02;24.25;;;17.48;;
27365;SDS011;14837;57.148;-2.144;2022-11-15T01:48:31;30.48;;;19.35;;
27365;SDS011;14837;57.148;-2.144;2022-11-15T01:50:59;25.48;;;17.95;;
27365;SDS011;14837;57.148;-2.144;2022-11-15T01:53:27;31.17;;;20.52;;
27365;SDS011;14837;57.148;-2.144;2022-11-15T01:55:54;26.98;;;18.13;;
27365;SDS011;14837;57.148;-2.144;2022-11-15T01:58:20;33.55;;;19.20;;
27365;SDS011;14837;57.148;-2.144;2022-11-15T02:00:47;32.10;;;20.73;;
27365;SDS011;14837;57.148;-2.144;2022-11-15T02:03:16;38.20;;;22.10;;
27365;SDS011;14837;57.148;-2.144;2022-11-15T02:05:42;27.50;;;21.40;;
27365;SDS011;14837;57.148;-2.144;2022-11-15T02:08:09;34.45;;;22.30;;
27365;SDS011;14837;57.148;-2.144;2022-11-15T02:10:46;33.20;;;22.35;;
27365;SDS011;14837;57.148;-2.144;2022-11-15T02:13:14;30.80;;;21.58;;
27365;SDS011;14837;57.148;-2.144;2022-11-15T02:18:31;29.20;;;21.23;;
27365;SDS011;14837;57.148;-2.144;2022-11-15T02:21:07;28.33;;;19.02;;
27365;SDS011;14837;57.148;-2.144;2022-11-15T02:24:27;31.45;;;21.52;;
27365;SDS011;14837;57.148;-2.144;2022-11-15T02:34:11;29.95;;;21.58;;
27365;SDS011;14837;57.148;-2.144;2022-11-15T02:42:17;35.17;;;21.20;;
27365;SDS011;14837;57.148;-2.144;2022-11-15T02:45:03;31.27;;;21.27;;
27365;SDS011;14837;57.148;-2.144;2022-11-15T02:47:32;32.72;;;21.45;;
27365;SDS011;14837;57.148;-2.144;2022-11-15T02:50:23;34.38;;;23.13;;
27365;SDS011;14837;57.148;-2.144;2022-11-15T02:52:50;35.42;;;21.70;;
27365;SDS011;14837;57.148;-2.144;2022-11-15T02:55:33;24.52;;;17.40;;
27365;SDS011;14837;57.148;-2.144;2022-11-15T02:58:11;26.90;;;17.73;;
27365;SDS011;14837;57.148;-2.144;2022-11-15T03:00:47;26.23;;;16.88;;
27365;SDS011;14837;57.148;-2.144;2022-11-15T03:06:02;23.58;;;16.20;;
27365;SDS011;14837;57.148;-2.144;2022-11-15T03:08:32;24.90;;;19.23;;
27365;SDS011;14837;57.148;-2.144;2022-11-15T03:13:26;24.80;;;18.92;;
27365;SDS011;14837;57.148;-2.144;2022-11-15T03:16:08;26.13;;;16.30;;
27365;SDS011;14837;57.148;-2.144;2022-11-15T03:18:37;27.27;;;16.75;;
27365;SDS011;14837;57.148;-2.144;2022-11-15T03:21:05;27.23;;;17.58;;
27365;SDS011;14837;57.148;-2.144;2022-11-15T03:23:33;23.80;;;17.23;;
27365;SDS011;14837;57.148;-2.144;2022-11-15T03:26:00;26.13;;;18.00;;
27365;SDS011;14837;57.148;-2.144;2022-11-15T03:28:29;27.38;;;18.55;;
27365;SDS011;14837;57.148;-2.144;2022-11-15T03:30:58;19.65;;;15.95;;
27365;SDS011;14837;57.148;-2.144;2022-11-15T03:33:26;28.15;;;18.08;;
27365;SDS011;14837;57.148;-2.144;2022-11-15T03:35:54;29.63;;;17.90;;
27365;SDS011;14837;57.148;-2.144;2022-11-15T03:38:22;32.15;;;18.15;;
27365;SDS011;14837;57.148;-2.144;2022-11-15T03:46:02;27.42;;;18.45;;
27365;SDS011;14837;57.148;-2.144;2022-11-15T03:48:33;27.60;;;19.30;;
27365;SDS011;14837;57.148;-2.144;2022-11-15T03:51:02;31.85;;;19.58;;
27365;SDS011;14837;57.148;-2.144;2022-11-15T03:53:29;25.20;;;18.23;;
27365;SDS011;14837;57.148;-2.144;2022-11-15T03:55:57;26.45;;;17.80;;
27365;SDS011;14837;57.148;-2.144;2022-11-15T03:58:24;31.17;;;20.75;;
27365;SDS011;14837;57.148;-2.144;2022-11-15T04:00:50;30.25;;;19.65;;
27365;SDS011;14837;57.148;-2.144;2022-11-15T04:03:17;35.65;;;20.67;;
27365;SDS011;14837;57.148;-2.144;2022-11-15T04:05:44;40.88;;;23.00;;
27365;SDS011;14837;57.148;-2.144;2022-11-15T04:08:10;32.95;;;21.88;;
27365;SDS011;14837;57.148;-2.144;2022-11-15T04:10:37;36.25;;;22.33;;
27365;SDS011;14837;57.148;-2.144;2022-11-15T04:13:03;28.15;;;21.45;;
27365;SDS011;14837;57.148;-2.144;2022-11-15T04:15:30;38.90;;;22.67;;
27365;SDS011;14837;57.148;-2.144;2022-11-15T04:17:56;31.73;;;21.75;;
27365;SDS011;14837;57.148;-2.144;2022-11-15T04:20:25;28.27;;;21.83;;
27365;SDS011;14837;57.148;-2.144;2022-11-15T04:23:10;31.70;;;21.55;;
27365;SDS011;14837;57.148;-2.144;2022-11-15T04:25:57;33.10;;;22.70;;
27365;SDS011;14837;57.148;-2.144;2022-11-15T04:28:24;43.75;;;25.00;;
27365;SDS011;14837;57.148;-2.144;2022-11-15T04:30:51;34.78;;;24.30;;
27365;SDS011;14837;57.148;-2.144;2022-11-15T04:33:17;33.53;;;23.15;;
27365;SDS011;14837;57.148;-2.144;2022-11-15T04:35:44;38.70;;;22.17;;
27365;SDS011;14837;57.148;-2.144;2022-11-15T04:38:30;34.20;;;20.35;;
27365;SDS011;14837;57.148;-2.144;2022-11-15T04:40:57;30.65;;;22.25;;
27365;SDS011;14837;57.148;-2.144;2022-11-15T04:43:23;35.65;;;22.48;;
27365;SDS011;14837;57.148;-2.144;2022-11-15T04:45:50;33.13;;;21.35;;
27365;SDS011;14837;57.148;-2.144;2022-11-15T04:48:18;33.25;;;21.20;;
27365;SDS011;14837;57.148;-2.144;2022-11-15T04:50:47;31.73;;;20.23;;
27365;SDS011;14837;57.148;-2.144;2022-11-15T04:53:13;37.13;;;20.67;;
27365;SDS011;14837;57.148;-2.144;2022-11-15T04:55:40;40.17;;;24.38;;
27365;SDS011;14837;57.148;-2.144;2022-11-15T04:58:10;37.63;;;23.58;;
27365;SDS011;14837;57.148;-2.144;2022-11-15T05:00:36;29.35;;;20.95;;
27365;SDS011;14837;57.148;-2.144;2022-11-15T05:03:03;40.28;;;23.73;;
27365;SDS011;14837;57.148;-2.144;2022-11-15T05:05:48;33.20;;;23.02;;
27365;SDS011;14837;57.148;-2.144;2022-11-15T05:08:14;36.53;;;25.33;;
27365;SDS011;14837;57.148;-2.144;2022-11-15T05:10:41;37.45;;;25.15;;
27365;SDS011;14837;57.148;-2.144;2022-11-15T05:13:07;37.08;;;24.70;;
27365;SDS011;14837;57.148;-2.144;2022-11-15T05:15:34;40.45;;;26.75;;
27365;SDS011;14837;57.148;-2.144;2022-11-15T05:18:00;30.42;;;24.70;;
27365;SDS011;14837;57.148;-2.144;2022-11-15T05:20:28;40.55;;;26.83;;
27365;SDS011;14837;57.148;-2.144;2022-11-15T05:22:55;37.33;;;24.25;;
27365;SDS011;14837;57.148;-2.144;2022-11-15T05:25:24;49.17;;;24.40;;
27365;SDS011;14837;57.148;-2.144;2022-11-15T05:27:51;35.78;;;24.15;;
27365;SDS011;14837;57.148;-2.144;2022-11-15T05:30:17;42.28;;;26.40;;
27365;SDS011;14837;57.148;-2.144;2022-11-15T05:32:44;37.97;;;27.17;;
27365;SDS011;14837;57.148;-2.144;2022-11-15T05:35:54;38.22;;;26.27;;
27365;SDS011;14837;57.148;-2.144;2022-11-15T05:38:00;41.38;;;27.08;;
27365;SDS011;14837;57.148;-2.144;2022-11-15T05:40:27;39.80;;;28.80;;
27365;SDS011;14837;57.148;-2.144;2022-11-15T05:42:55;35.45;;;27.23;;
27365;SDS011;14837;57.148;-2.144;2022-11-15T05:45:21;39.75;;;27.73;;
27365;SDS011;14837;57.148;-2.144;2022-11-15T05:47:52;38.80;;;26.77;;
27365;SDS011;14837;57.148;-2.144;2022-11-15T05:50:20;47.33;;;29.30;;
27365;SDS011;14837;57.148;-2.144;2022-11-15T05:52:46;50.15;;;33.22;;
27365;SDS011;14837;57.148;-2.144;2022-11-15T05:55:13;48.13;;;31.25;;
27365;SDS011;14837;57.148;-2.144;2022-11-15T05:57:40;50.45;;;31.83;;
27365;SDS011;14837;57.148;-2.144;2022-11-15T06:00:06;40.75;;;29.10;;
27365;SDS011;14837;57.148;-2.144;2022-11-15T06:02:34;46.95;;;30.55;;
27365;SDS011;14837;57.148;-2.144;2022-11-15T06:05:01;44.25;;;28.65;;
27365;SDS011;14837;57.148;-2.144;2022-11-15T06:07:28;40.67;;;28.48;;
27365;SDS011;14837;57.148;-2.144;2022-11-15T06:09:55;44.40;;;31.58;;
27365;SDS011;14837;57.148;-2.144;2022-11-15T06:12:21;53.80;;;32.47;;
27365;SDS011;14837;57.148;-2.144;2022-11-15T06:14:48;45.90;;;32.72;;
27365;SDS011;14837;57.148;-2.144;2022-11-15T06:17:14;46.22;;;31.90;;
27365;SDS011;14837;57.148;-2.144;2022-11-15T06:19:41;47.25;;;31.33;;
27365;SDS011;14837;57.148;-2.144;2022-11-15T06:22:07;47.35;;;32.95;;
27365;SDS011;14837;57.148;-2.144;2022-11-15T06:24:35;44.58;;;31.83;;
27365;SDS011;14837;57.148;-2.144;2022-11-15T06:27:02;43.55;;;31.23;;
27365;SDS011;14837;57.148;-2.144;2022-11-15T06:29:28;51.53;;;32.35;;
27365;SDS011;14837;57.148;-2.144;2022-11-15T06:31:55;47.55;;;30.40;;
27365;SDS011;14837;57.148;-2.144;2022-11-15T06:34:21;48.05;;;32.33;;
27365;SDS011;14837;57.148;-2.144;2022-11-15T06:36:48;53.03;;;32.15;;
27365;SDS011;14837;57.148;-2.144;2022-11-15T06:39:14;44.78;;;32.22;;
27365;SDS011;14837;57.148;-2.144;2022-11-15T06:41:41;46.97;;;31.42;;
27365;SDS011;14837;57.148;-2.144;2022-11-15T06:44:07;44.20;;;30.90;;
27365;SDS011;14837;57.148;-2.144;2022-11-15T06:46:34;43.70;;;29.95;;
27365;SDS011;14837;57.148;-2.144;2022-11-15T06:49:00;54.22;;;32.88;;
27365;SDS011;14837;57.148;-2.144;2022-11-15T06:54:01;38.08;;;27.77;;
27365;SDS011;14837;57.148;-2.144;2022-11-15T06:56:27;40.35;;;27.42;;
27365;SDS011;14837;57.148;-2.144;2022-11-15T06:58:55;42.72;;;28.85;;
27365;SDS011;14837;57.148;-2.144;2022-11-15T07:01:21;50.25;;;31.20;;
27365;SDS011;14837;57.148;-2.144;2022-11-15T07:03:48;47.47;;;29.63;;
27365;SDS011;14837;57.148;-2.144;2022-11-15T07:06:14;50.63;;;28.42;;
27365;SDS011;14837;57.148;-2.144;2022-11-15T07:08:41;52.28;;;28.88;;
27365;SDS011;14837;57.148;-2.144;2022-11-15T07:11:08;37.70;;;25.83;;
27365;SDS011;14837;57.148;-2.144;2022-11-15T07:13:35;45.08;;;29.95;;
27365;SDS011;14837;57.148;-2.144;2022-11-15T07:16:05;46.17;;;28.00;;
27365;SDS011;14837;57.148;-2.144;2022-11-15T07:18:36;44.03;;;27.77;;
27365;SDS011;14837;57.148;-2.144;2022-11-15T07:21:03;44.30;;;27.58;;
27365;SDS011;14837;57.148;-2.144;2022-11-15T07:23:30;43.13;;;25.65;;
27365;SDS011;14837;57.148;-2.144;2022-11-15T07:25:57;39.90;;;25.65;;
27365;SDS011;14837;57.148;-2.144;2022-11-15T07:28:25;35.35;;;25.73;;
27365;SDS011;14837;57.148;-2.144;2022-11-15T07:30:52;36.92;;;24.95;;
27365;SDS011;14837;57.148;-2.144;2022-11-15T07:33:18;44.80;;;27.20;;
27365;SDS011;14837;57.148;-2.144;2022-11-15T07:35:45;45.55;;;26.45;;
27365;SDS011;14837;57.148;-2.144;2022-11-15T07:38:14;41.75;;;25.38;;
27365;SDS011;14837;57.148;-2.144;2022-11-15T07:40:46;36.38;;;25.45;;
27365;SDS011;14837;57.148;-2.144;2022-11-15T07:43:13;41.35;;;25.05;;
27365;SDS011;14837;57.148;-2.144;2022-11-15T07:45:41;41.25;;;26.67;;
27365;SDS011;14837;57.148;-2.144;2022-11-15T07:48:08;54.13;;;27.92;;
27365;SDS011;14837;57.148;-2.144;2022-11-15T07:50:34;42.63;;;27.15;;
27365;SDS011;14837;57.148;-2.144;2022-11-15T07:53:01;43.35;;;25.20;;
27365;SDS011;14837;57.148;-2.144;2022-11-15T07:55:27;45.58;;;28.25;;
27365;SDS011;14837;57.148;-2.144;2022-11-15T07:58:01;42.53;;;25.95;;
27365;SDS011;14837;57.148;-2.144;2022-11-15T08:00:27;43.30;;;28.90;;
27365;SDS011;14837;57.148;-2.144;2022-11-15T08:03:01;46.38;;;27.85;;
27365;SDS011;14837;57.148;-2.144;2022-11-15T08:05:27;43.05;;;26.15;;
27365;SDS011;14837;57.148;-2.144;2022-11-15T08:07:57;44.00;;;25.80;;
27365;SDS011;14837;57.148;-2.144;2022-11-15T08:10:24;35.08;;;24.52;;
27365;SDS011;14837;57.148;-2.144;2022-11-15T08:13:04;44.47;;;27.05;;
27365;SDS011;14837;57.148;-2.144;2022-11-15T08:15:31;42.50;;;27.35;;
27365;SDS011;14837;57.148;-2.144;2022-11-15T08:17:59;47.22;;;27.13;;
27365;SDS011;14837;57.148;-2.144;2022-11-15T08:20:26;44.58;;;27.48;;
27365;SDS011;14837;57.148;-2.144;2022-11-15T08:22:56;53.97;;;30.95;;
27365;SDS011;14837;57.148;-2.144;2022-11-15T08:25:23;43.60;;;29.75;;
27365;SDS011;14837;57.148;-2.144;2022-11-15T08:27:52;44.72;;;27.08;;
27365;SDS011;14837;57.148;-2.144;2022-11-15T08:30:19;47.28;;;27.52;;
27365;SDS011;14837;57.148;-2.144;2022-11-15T08:32:46;48.38;;;28.50;;
27365;SDS011;14837;57.148;-2.144;2022-11-15T08:35:12;49.42;;;28.10;;
27365;SDS011;14837;57.148;-2.144;2022-11-15T08:37:39;42.80;;;27.27;;
27365;SDS011;14837;57.148;-2.144;2022-11-15T08:40:06;55.45;;;29.85;;
27365;SDS011;14837;57.148;-2.144;2022-11-15T08:42:32;51.30;;;30.17;;
27365;SDS011;14837;57.148;-2.144;2022-11-15T08:44:59;52.80;;;31.00;;
27365;SDS011;14837;57.148;-2.144;2022-11-15T08:47:26;44.95;;;29.67;;
27365;SDS011;14837;57.148;-2.144;2022-11-15T08:49:52;58.05;;;33.30;;
27365;SDS011;14837;57.148;-2.144;2022-11-15T08:52:19;45.70;;;27.30;;
27365;SDS011;14837;57.148;-2.144;2022-11-15T08:54:45;49.95;;;30.58;;
27365;SDS011;14837;57.148;-2.144;2022-11-15T08:57:12;47.85;;;30.10;;
27365;SDS011;14837;57.148;-2.144;2022-11-15T08:59:38;47.88;;;29.63;;
27365;SDS011;14837;57.148;-2.144;2022-11-15T09:02:05;43.42;;;26.80;;
27365;SDS011;14837;57.148;-2.144;2022-11-15T09:04:32;40.95;;;25.58;;
27365;SDS011;14837;57.148;-2.144;2022-11-15T09:06:58;46.85;;;27.38;;
27365;SDS011;14837;57.148;-2.144;2022-11-15T09:09:25;41.58;;;25.55;;
27365;SDS011;14837;57.148;-2.144;2022-11-15T09:11:52;37.10;;;23.95;;
27365;SDS011;14837;57.148;-2.144;2022-11-15T09:14:24;41.13;;;24.20;;
27365;SDS011;14837;57.148;-2.144;2022-11-15T09:16:51;45.13;;;25.45;;
27365;SDS011;14837;57.148;-2.144;2022-11-15T09:19:17;34.83;;;25.77;;
27365;SDS011;14837;57.148;-2.144;2022-11-15T09:21:44;45.45;;;26.67;;
27365;SDS011;14837;57.148;-2.144;2022-11-15T09:24:10;46.83;;;27.70;;
27365;SDS011;14837;57.148;-2.144;2022-11-15T09:26:37;41.47;;;24.70;;
27365;SDS011;14837;57.148;-2.144;2022-11-15T09:29:03;39.33;;;25.27;;
27365;SDS011;14837;57.148;-2.144;2022-11-15T09:31:30;40.67;;;26.75;;
27365;SDS011;14837;57.148;-2.144;2022-11-15T09:33:57;41.42;;;24.85;;
27365;SDS011;14837;57.148;-2.144;2022-11-15T09:36:23;41.33;;;27.13;;
27365;SDS011;14837;57.148;-2.144;2022-11-15T09:38:50;42.55;;;24.23;;
27365;SDS011;14837;57.148;-2.144;2022-11-15T09:41:25;57.40;;;25.98;;
27365;SDS011;14837;57.148;-2.144;2022-11-15T09:49:21;36.42;;;25.15;;
27365;SDS011;14837;57.148;-2.144;2022-11-15T09:51:49;35.50;;;23.50;;
27365;SDS011;14837;57.148;-2.144;2022-11-15T09:54:29;44.97;;;26.77;;
27365;SDS011;14837;57.148;-2.144;2022-11-15T10:05:39;34.28;;;23.63;;
27365;SDS011;14837;57.148;-2.144;2022-11-15T10:08:53;30.90;;;21.17;;
27365;SDS011;14837;57.148;-2.144;2022-11-15T10:10:57;39.50;;;25.73;;
27365;SDS011;14837;57.148;-2.144;2022-11-15T10:13:45;36.00;;;23.17;;
27365;SDS011;14837;57.148;-2.144;2022-11-15T10:19:26;41.60;;;23.52;;
27365;SDS011;14837;57.148;-2.144;2022-11-15T10:22:15;35.53;;;23.30;;
27365;SDS011;14837;57.148;-2.144;2022-11-15T10:24:26;43.03;;;25.50;;
27365;SDS011;14837;57.148;-2.144;2022-11-15T10:29:21;35.20;;;22.13;;
27365;SDS011;14837;57.148;-2.144;2022-11-15T10:31:52;36.30;;;23.40;;
27365;SDS011;14837;57.148;-2.144;2022-11-15T10:34:22;39.13;;;24.20;;
27365;SDS011;14837;57.148;-2.144;2022-11-15T10:36:59;35.13;;;24.05;;
27365;SDS011;14837;57.148;-2.144;2022-11-15T10:39:26;40.83;;;24.75;;
27365;SDS011;14837;57.148;-2.144;2022-11-15T10:41:53;42.58;;;25.88;;
27365;SDS011;14837;57.148;-2.144;2022-11-15T10:44:21;49.47;;;27.20;;
27365;SDS011;14837;57.148;-2.144;2022-11-15T10:47:34;44.45;;;26.90;;
27365;SDS011;14837;57.148;-2.144;2022-11-15T10:49:35;45.95;;;26.08;;
27365;SDS011;14837;57.148;-2.144;2022-11-15T10:54:36;39.45;;;25.90;;
27365;SDS011;14837;57.148;-2.144;2022-11-15T10:57:07;41.80;;;25.13;;
27365;SDS011;14837;57.148;-2.144;2022-11-15T10:59:35;39.00;;;24.42;;
27365;SDS011;14837;57.148;-2.144;2022-11-15T11:04:50;40.28;;;25.15;;
27365;SDS011;14837;57.148;-2.144;2022-11-15T11:07:22;40.50;;;21.90;;
27365;SDS011;14837;57.148;-2.144;2022-11-15T11:09:56;40.50;;;25.30;;
27365;SDS011;14837;57.148;-2.144;2022-11-15T11:12:30;39.47;;;23.45;;
27365;SDS011;14837;57.148;-2.144;2022-11-15T11:14:58;34.72;;;22.08;;
27365;SDS011;14837;57.148;-2.144;2022-11-15T11:17:29;48.05;;;25.00;;
27365;SDS011;14837;57.148;-2.144;2022-11-15T11:22:28;36.92;;;21.58;;
27365;SDS011;14837;57.148;-2.144;2022-11-15T11:27:43;30.63;;;20.80;;
27365;SDS011;14837;57.148;-2.144;2022-11-15T11:40:24;21.65;;;12.60;;
27365;SDS011;14837;57.148;-2.144;2022-11-15T11:43:12;29.00;;;12.98;;
27365;SDS011;14837;57.148;-2.144;2022-11-15T11:48:13;18.48;;;9.18;;
27365;SDS011;14837;57.148;-2.144;2022-11-15T11:50:44;15.35;;;8.60;;
27365;SDS011;14837;57.148;-2.144;2022-11-15T11:53:12;15.32;;;7.55;;
27365;SDS011;14837;57.148;-2.144;2022-11-15T11:55:42;13.65;;;6.25;;
27365;SDS011;14837;57.148;-2.144;2022-11-15T11:58:12;11.05;;;5.75;;
27365;SDS011;14837;57.148;-2.144;2022-11-15T12:00:41;12.85;;;6.32;;
27365;SDS011;14837;57.148;-2.144;2022-11-15T12:03:12;19.92;;;6.80;;
27365;SDS011;14837;57.148;-2.144;2022-11-15T12:05:44;12.30;;;4.88;;
27365;SDS011;14837;57.148;-2.144;2022-11-15T12:10:37;12.13;;;3.88;;
27365;SDS011;14837;57.148;-2.144;2022-11-15T12:15:33;16.48;;;4.72;;
27365;SDS011;14837;57.148;-2.144;2022-11-15T12:18:02;16.25;;;4.97;;
27365;SDS011;14837;57.148;-2.144;2022-11-15T12:20:30;12.63;;;5.13;;
27365;SDS011;14837;57.148;-2.144;2022-11-15T12:23:20;11.52;;;4.68;;
27365;SDS011;14837;57.148;-2.144;2022-11-15T12:25:50;11.13;;;5.00;;
27365;SDS011;14837;57.148;-2.144;2022-11-15T12:28:19;13.88;;;5.18;;
27365;SDS011;14837;57.148;-2.144;2022-11-15T12:31:02;13.32;;;4.78;;
27365;SDS011;14837;57.148;-2.144;2022-11-15T12:33:31;12.05;;;4.43;;
27365;SDS011;14837;57.148;-2.144;2022-11-15T12:36:02;16.60;;;4.68;;
27365;SDS011;14837;57.148;-2.144;2022-11-15T12:41:16;11.15;;;4.22;;
27365;SDS011;14837;57.148;-2.144;2022-11-15T12:43:44;10.98;;;4.63;;
27365;SDS011;14837;57.148;-2.144;2022-11-15T13:02:21;12.98;;;4.70;;
27365;SDS011;14837;57.148;-2.144;2022-11-15T13:10:00;11.63;;;5.10;;
27365;SDS011;14837;57.148;-2.144;2022-11-15T13:14:54;9.30;;;5.00;;
27365;SDS011;14837;57.148;-2.144;2022-11-15T13:17:29;14.15;;;6.35;;
27365;SDS011;14837;57.148;-2.144;2022-11-15T13:22:23;17.02;;;5.65;;
27365;SDS011;14837;57.148;-2.144;2022-11-15T13:25:15;17.73;;;5.55;;
27365;SDS011;14837;57.148;-2.144;2022-11-15T13:27:46;16.75;;;6.47;;
27365;SDS011;14837;57.148;-2.144;2022-11-15T13:30:15;18.65;;;6.32;;
27365;SDS011;14837;57.148;-2.144;2022-11-15T13:32:44;14.52;;;4.22;;
27365;SDS011;14837;57.148;-2.144;2022-11-15T13:35:18;15.43;;;5.75;;
27365;SDS011;14837;57.148;-2.144;2022-11-15T13:37:45;12.88;;;4.90;;
27365;SDS011;14837;57.148;-2.144;2022-11-15T13:42:44;17.52;;;6.15;;
27365;SDS011;14837;57.148;-2.144;2022-11-15T13:45:12;13.07;;;5.57;;
27365;SDS011;14837;57.148;-2.144;2022-11-15T13:47:39;16.25;;;5.97;;
27365;SDS011;14837;57.148;-2.144;2022-11-15T13:50:09;16.23;;;6.95;;
27365;SDS011;14837;57.148;-2.144;2022-11-15T13:52:38;20.95;;;6.60;;
27365;SDS011;14837;57.148;-2.144;2022-11-15T13:55:11;13.80;;;5.93;;
27365;SDS011;14837;57.148;-2.144;2022-11-15T13:57:41;14.77;;;4.85;;
27365;SDS011;14837;57.148;-2.144;2022-11-15T14:00:33;17.25;;;5.50;;
27365;SDS011;14837;57.148;-2.144;2022-11-15T14:02:56;22.60;;;7.45;;
27365;SDS011;14837;57.148;-2.144;2022-11-15T14:05:24;24.15;;;9.40;;
27365;SDS011;14837;57.148;-2.144;2022-11-15T14:07:54;20.88;;;7.43;;
27365;SDS011;14837;57.148;-2.144;2022-11-15T14:10:29;16.60;;;5.65;;
27365;SDS011;14837;57.148;-2.144;2022-11-15T14:12:57;18.73;;;6.07;;
27365;SDS011;14837;57.148;-2.144;2022-11-15T14:15:28;20.42;;;7.80;;
27365;SDS011;14837;57.148;-2.144;2022-11-15T14:17:56;19.08;;;7.28;;
27365;SDS011;14837;57.148;-2.144;2022-11-15T14:22:52;14.75;;;5.57;;
27365;SDS011;14837;57.148;-2.144;2022-11-15T14:25:21;19.70;;;5.38;;
27365;SDS011;14837;57.148;-2.144;2022-11-15T14:30:35;18.60;;;5.30;;
27365;SDS011;14837;57.148;-2.144;2022-11-15T14:33:11;26.27;;;5.97;;
27365;SDS011;14837;57.148;-2.144;2022-11-15T14:35:43;17.90;;;5.32;;
27365;SDS011;14837;57.148;-2.144;2022-11-15T14:38:10;16.15;;;5.45;;
27365;SDS011;14837;57.148;-2.144;2022-11-15T14:40:36;21.83;;;5.32;;
27365;SDS011;14837;57.148;-2.144;2022-11-15T14:43:03;17.55;;;4.63;;
27365;SDS011;14837;57.148;-2.144;2022-11-15T14:45:29;29.13;;;6.55;;
27365;SDS011;14837;57.148;-2.144;2022-11-15T14:47:56;22.10;;;4.63;;
27365;SDS011;14837;57.148;-2.144;2022-11-15T14:50:22;14.40;;;5.03;;
27365;SDS011;14837;57.148;-2.144;2022-11-15T14:52:49;13.07;;;4.70;;
27365;SDS011;14837;57.148;-2.144;2022-11-15T14:55:23;19.77;;;5.40;;
27365;SDS011;14837;57.148;-2.144;2022-11-15T14:57:50;20.00;;;4.88;;
27365;SDS011;14837;57.148;-2.144;2022-11-15T15:00:16;25.02;;;6.10;;
27365;SDS011;14837;57.148;-2.144;2022-11-15T15:02:43;26.58;;;7.45;;
27365;SDS011;14837;57.148;-2.144;2022-11-15T15:05:14;18.80;;;5.95;;
27365;SDS011;14837;57.148;-2.144;2022-11-15T15:07:41;25.77;;;6.40;;
27365;SDS011;14837;57.148;-2.144;2022-11-15T15:10:09;21.35;;;4.50;;
27365;SDS011;14837;57.148;-2.144;2022-11-15T15:12:55;25.33;;;5.43;;
27365;SDS011;14837;57.148;-2.144;2022-11-15T15:15:24;17.45;;;5.22;;
27365;SDS011;14837;57.148;-2.144;2022-11-15T15:17:51;18.95;;;5.13;;
27365;SDS011;14837;57.148;-2.144;2022-11-15T15:20:17;21.67;;;5.22;;
27365;SDS011;14837;57.148;-2.144;2022-11-15T15:22:44;20.25;;;6.50;;
27365;SDS011;14837;57.148;-2.144;2022-11-15T15:25:31;15.32;;;4.10;;
27365;SDS011;14837;57.148;-2.144;2022-11-15T15:27:58;21.25;;;5.07;;
27365;SDS011;14837;57.148;-2.144;2022-11-15T15:30:26;19.65;;;5.88;;
27365;SDS011;14837;57.148;-2.144;2022-11-15T15:32:53;21.58;;;6.47;;
27365;SDS011;14837;57.148;-2.144;2022-11-15T15:35:20;24.73;;;6.20;;
27365;SDS011;14837;57.148;-2.144;2022-11-15T15:37:47;23.75;;;5.93;;
27365;SDS011;14837;57.148;-2.144;2022-11-15T15:40:15;22.45;;;5.43;;
27365;SDS011;14837;57.148;-2.144;2022-11-15T15:42:42;31.50;;;7.82;;
27365;SDS011;14837;57.148;-2.144;2022-11-15T15:45:09;21.23;;;6.10;;
27365;SDS011;14837;57.148;-2.144;2022-11-15T15:47:36;21.45;;;6.85;;
27365;SDS011;14837;57.148;-2.144;2022-11-15T15:50:04;19.55;;;5.20;;
27365;SDS011;14837;57.148;-2.144;2022-11-15T15:52:38;18.80;;;5.97;;
27365;SDS011;14837;57.148;-2.144;2022-11-15T15:55:05;21.23;;;5.22;;
27365;SDS011;14837;57.148;-2.144;2022-11-15T15:57:31;18.80;;;4.90;;
27365;SDS011;14837;57.148;-2.144;2022-11-15T15:59:58;17.23;;;4.63;;
27365;SDS011;14837;57.148;-2.144;2022-11-15T16:02:24;22.35;;;5.05;;
27365;SDS011;14837;57.148;-2.144;2022-11-15T16:04:51;26.05;;;6.32;;
27365;SDS011;14837;57.148;-2.144;2022-11-15T16:07:20;24.33;;;5.60;;
27365;SDS011;14837;57.148;-2.144;2022-11-15T16:09:47;23.63;;;6.38;;
27365;SDS011;14837;57.148;-2.144;2022-11-15T16:12:29;24.80;;;4.72;;
27365;SDS011;14837;57.148;-2.144;2022-11-15T16:14:56;20.17;;;5.35;;